CMB832 Details

Departure: Bagram Air Base (OAIX)
Arrival: Ramstein Air Force Base (ETAR)
Notes: USTRANSCOM CONTRACT FLIGHT


Current Weather Information
OAIX 221056Z 00000KT 9999 BKN140 OVC350 14/M03 A3016 RMK AO2A SLP165 T01421032 $
ETAR 221056Z AUTO 01006KT 9999 CLR 17/M02 A3039 RMK AO2 SLP300 T01651021 $